Cherrygrove, North Carolina
Current Conditions -  °F | °C
As of 1:35 PM on Thursday 27 Nov 2014 (Local Time) from KSIF Reporting Station
Scattered Clouds Scattered Clouds  
Wind Chill: 41°   Ceiling: Unl
Heat Index: 46°   Visibility: 10mi
Dew Point: 34°   Wind: 9mph
Humidity: 63%   Direction: 330°NNW
Pressure: 30.08"   Gusts: NA
Location:  36.3355°N, 79.6561°W
Report Text: KSIF 271835Z AUTO 33008KT 300V360 10SM SCT038 SCT044 SCT050 08/01 A3008 RMK AO2 P0001 T00750009
Loading
Personal Weather Stations






























Interactive Weather Map New forecast layout! Learn more

10-Day Weather Forecast

Advertisements
Track Severe Weather on mobile